sensor_id;sensor_type;location;lat;lon;timestamp;P1;durP1;ratioP1;P2;durP2;ratioP2
70385;SDS011;63206;55.650;37.500;2023-02-11T00:02:17;22.75;;;8.02;;
70385;SDS011;63206;55.650;37.500;2023-02-11T00:04:46;23.45;;;8.52;;
70385;SDS011;63206;55.650;37.500;2023-02-11T00:07:14;26.20;;;9.00;;
70385;SDS011;63206;55.650;37.500;2023-02-11T00:09:46;21.25;;;7.85;;
70385;SDS011;63206;55.650;37.500;2023-02-11T00:12:14;21.48;;;7.00;;
70385;SDS011;63206;55.650;37.500;2023-02-11T00:14:47;22.05;;;8.20;;
70385;SDS011;63206;55.650;37.500;2023-02-11T00:17:15;25.45;;;7.47;;
70385;SDS011;63206;55.650;37.500;2023-02-11T00:19:42;24.83;;;8.30;;
70385;SDS011;63206;55.650;37.500;2023-02-11T00:22:13;22.42;;;7.78;;
70385;SDS011;63206;55.650;37.500;2023-02-11T00:24:45;18.15;;;6.45;;
70385;SDS011;63206;55.650;37.500;2023-02-11T00:27:16;20.55;;;7.95;;
70385;SDS011;63206;55.650;37.500;2023-02-11T00:29:46;23.45;;;7.60;;
70385;SDS011;63206;55.650;37.500;2023-02-11T00:32:17;24.85;;;8.35;;
70385;SDS011;63206;55.650;37.500;2023-02-11T00:34:46;17.90;;;6.68;;
70385;SDS011;63206;55.650;37.500;2023-02-11T00:37:15;22.00;;;7.90;;
70385;SDS011;63206;55.650;37.500;2023-02-11T00:39:47;19.00;;;7.22;;
70385;SDS011;63206;55.650;37.500;2023-02-11T00:42:14;18.98;;;6.72;;
70385;SDS011;63206;55.650;37.500;2023-02-11T00:44:47;17.23;;;6.35;;
70385;SDS011;63206;55.650;37.500;2023-02-11T00:47:21;17.83;;;6.60;;
70385;SDS011;63206;55.650;37.500;2023-02-11T00:49:53;20.15;;;7.25;;
70385;SDS011;63206;55.650;37.500;2023-02-11T00:52:22;19.58;;;7.05;;
70385;SDS011;63206;55.650;37.500;2023-02-11T00:54:53;24.52;;;8.07;;
70385;SDS011;63206;55.650;37.500;2023-02-11T00:57:21;21.17;;;7.53;;
70385;SDS011;63206;55.650;37.500;2023-02-11T00:59:50;18.77;;;6.68;;
70385;SDS011;63206;55.650;37.500;2023-02-11T01:02:23;17.35;;;5.72;;
70385;SDS011;63206;55.650;37.500;2023-02-11T01:04:58;19.13;;;6.30;;
70385;SDS011;63206;55.650;37.500;2023-02-11T01:07:32;23.85;;;6.70;;
70385;SDS011;63206;55.650;37.500;2023-02-11T01:09:58;19.92;;;6.88;;
70385;SDS011;63206;55.650;37.500;2023-02-11T01:12:29;16.33;;;5.60;;
70385;SDS011;63206;55.650;37.500;2023-02-11T01:15:02;17.83;;;6.57;;
70385;SDS011;63206;55.650;37.500;2023-02-11T01:17:34;19.42;;;6.07;;
70385;SDS011;63206;55.650;37.500;2023-02-11T01:20:10;21.35;;;6.05;;
70385;SDS011;63206;55.650;37.500;2023-02-11T01:22:41;18.63;;;6.47;;
70385;SDS011;63206;55.650;37.500;2023-02-11T01:25:07;17.90;;;6.57;;
70385;SDS011;63206;55.650;37.500;2023-02-11T01:27:37;18.60;;;5.53;;
70385;SDS011;63206;55.650;37.500;2023-02-11T01:30:04;15.15;;;5.68;;
70385;SDS011;63206;55.650;37.500;2023-02-11T01:32:33;17.23;;;5.05;;
70385;SDS011;63206;55.650;37.500;2023-02-11T01:35:03;20.92;;;6.20;;
70385;SDS011;63206;55.650;37.500;2023-02-11T01:37:35;17.48;;;5.97;;
70385;SDS011;63206;55.650;37.500;2023-02-11T01:40:09;17.88;;;6.10;;
70385;SDS011;63206;55.650;37.500;2023-02-11T01:42:43;16.60;;;5.78;;
70385;SDS011;63206;55.650;37.500;2023-02-11T01:48:01;17.60;;;5.70;;
70385;SDS011;63206;55.650;37.500;2023-02-11T01:50:30;18.13;;;6.00;;
70385;SDS011;63206;55.650;37.500;2023-02-11T01:53:02;14.32;;;4.28;;
70385;SDS011;63206;55.650;37.500;2023-02-11T01:55:50;20.10;;;5.40;;
70385;SDS011;63206;55.650;37.500;2023-02-11T01:58:36;14.25;;;4.90;;
70385;SDS011;63206;55.650;37.500;2023-02-11T02:01:06;19.40;;;5.50;;
70385;SDS011;63206;55.650;37.500;2023-02-11T02:03:38;16.90;;;5.20;;
70385;SDS011;63206;55.650;37.500;2023-02-11T02:06:32;16.52;;;4.57;;
70385;SDS011;63206;55.650;37.500;2023-02-11T02:09:12;11.90;;;4.30;;
70385;SDS011;63206;55.650;37.500;2023-02-11T02:11:41;15.73;;;4.70;;
70385;SDS011;63206;55.650;37.500;2023-02-11T02:14:12;14.13;;;5.03;;
70385;SDS011;63206;55.650;37.500;2023-02-11T02:16:41;15.77;;;5.00;;
70385;SDS011;63206;55.650;37.500;2023-02-11T02:19:46;15.75;;;5.32;;
70385;SDS011;63206;55.650;37.500;2023-02-11T02:27:32;14.70;;;5.30;;
70385;SDS011;63206;55.650;37.500;2023-02-11T02:38:06;14.75;;;4.70;;
70385;SDS011;63206;55.650;37.500;2023-02-11T02:40:44;14.57;;;4.38;;
70385;SDS011;63206;55.650;37.500;2023-02-11T02:43:16;15.25;;;4.40;;
70385;SDS011;63206;55.650;37.500;2023-02-11T02:45:49;16.40;;;5.28;;
70385;SDS011;63206;55.650;37.500;2023-02-11T02:48:27;16.23;;;4.93;;
70385;SDS011;63206;55.650;37.500;2023-02-11T02:51:12;12.10;;;4.53;;
70385;SDS011;63206;55.650;37.500;2023-02-11T02:56:22;11.60;;;3.90;;
70385;SDS011;63206;55.650;37.500;2023-02-11T03:01:49;14.52;;;4.43;;
70385;SDS011;63206;55.650;37.500;2023-02-11T03:04:28;14.73;;;4.47;;
70385;SDS011;63206;55.650;37.500;2023-02-11T03:09:58;11.05;;;4.10;;
70385;SDS011;63206;55.650;37.500;2023-02-11T03:12:16;16.63;;;4.97;;
70385;SDS011;63206;55.650;37.500;2023-02-11T03:14:49;12.63;;;4.13;;
70385;SDS011;63206;55.650;37.500;2023-02-11T03:17:21;15.02;;;4.20;;
70385;SDS011;63206;55.650;37.500;2023-02-11T03:19:51;14.70;;;4.10;;
70385;SDS011;63206;55.650;37.500;2023-02-11T03:22:21;12.40;;;4.03;;
70385;SDS011;63206;55.650;37.500;2023-02-11T03:24:50;10.07;;;3.13;;
70385;SDS011;63206;55.650;37.500;2023-02-11T03:27:20;12.80;;;4.45;;
70385;SDS011;63206;55.650;37.500;2023-02-11T03:30:36;13.13;;;4.40;;
70385;SDS011;63206;55.650;37.500;2023-02-11T03:32:45;10.85;;;4.07;;
70385;SDS011;63206;55.650;37.500;2023-02-11T03:35:19;13.38;;;4.07;;
70385;SDS011;63206;55.650;37.500;2023-02-11T03:37:52;10.82;;;3.67;;
70385;SDS011;63206;55.650;37.500;2023-02-11T03:40:24;13.15;;;4.05;;
70385;SDS011;63206;55.650;37.500;2023-02-11T03:42:56;13.93;;;3.88;;
70385;SDS011;63206;55.650;37.500;2023-02-11T03:45:25;11.95;;;4.28;;
70385;SDS011;63206;55.650;37.500;2023-02-11T03:47:57;13.30;;;4.10;;
70385;SDS011;63206;55.650;37.500;2023-02-11T03:50:27;13.70;;;4.07;;
70385;SDS011;63206;55.650;37.500;2023-02-11T03:53:00;11.70;;;4.18;;
70385;SDS011;63206;55.650;37.500;2023-02-11T03:55:34;11.40;;;3.72;;
70385;SDS011;63206;55.650;37.500;2023-02-11T03:58:04;14.65;;;3.70;;
70385;SDS011;63206;55.650;37.500;2023-02-11T04:00:30;13.75;;;4.22;;
70385;SDS011;63206;55.650;37.500;2023-02-11T04:02:57;11.38;;;4.10;;
70385;SDS011;63206;55.650;37.500;2023-02-11T04:05:25;12.40;;;3.65;;
70385;SDS011;63206;55.650;37.500;2023-02-11T04:07:57;13.57;;;4.10;;
70385;SDS011;63206;55.650;37.500;2023-02-11T04:10:24;11.98;;;3.65;;
70385;SDS011;63206;55.650;37.500;2023-02-11T04:12:50;13.73;;;3.78;;
70385;SDS011;63206;55.650;37.500;2023-02-11T04:15:18;15.95;;;4.05;;
70385;SDS011;63206;55.650;37.500;2023-02-11T04:17:44;11.95;;;3.58;;
70385;SDS011;63206;55.650;37.500;2023-02-11T04:20:13;13.40;;;4.07;;
70385;SDS011;63206;55.650;37.500;2023-02-11T04:22:39;15.23;;;4.00;;
70385;SDS011;63206;55.650;37.500;2023-02-11T04:25:08;13.05;;;3.58;;
70385;SDS011;63206;55.650;37.500;2023-02-11T04:27:37;13.32;;;3.90;;
70385;SDS011;63206;55.650;37.500;2023-02-11T04:30:04;10.95;;;3.45;;
70385;SDS011;63206;55.650;37.500;2023-02-11T04:32:30;8.10;;;3.00;;
70385;SDS011;63206;55.650;37.500;2023-02-11T04:34:59;9.57;;;2.88;;
70385;SDS011;63206;55.650;37.500;2023-02-11T04:37:27;14.52;;;3.47;;
70385;SDS011;63206;55.650;37.500;2023-02-11T04:39:53;9.00;;;2.72;;
70385;SDS011;63206;55.650;37.500;2023-02-11T04:42:19;9.90;;;3.15;;
70385;SDS011;63206;55.650;37.500;2023-02-11T04:44:45;9.80;;;3.17;;
70385;SDS011;63206;55.650;37.500;2023-02-11T04:47:17;11.35;;;3.50;;
70385;SDS011;63206;55.650;37.500;2023-02-11T04:49:45;9.80;;;3.08;;
70385;SDS011;63206;55.650;37.500;2023-02-11T04:52:14;15.13;;;3.97;;
70385;SDS011;63206;55.650;37.500;2023-02-11T04:54:43;11.77;;;3.40;;
70385;SDS011;63206;55.650;37.500;2023-02-11T04:57:14;11.20;;;3.47;;
70385;SDS011;63206;55.650;37.500;2023-02-11T05:02:18;11.43;;;3.28;;
70385;SDS011;63206;55.650;37.500;2023-02-11T05:04:47;10.18;;;3.35;;
70385;SDS011;63206;55.650;37.500;2023-02-11T05:07:13;8.15;;;2.67;;
70385;SDS011;63206;55.650;37.500;2023-02-11T05:09:44;8.65;;;3.30;;
70385;SDS011;63206;55.650;37.500;2023-02-11T05:12:15;10.00;;;3.15;;
70385;SDS011;63206;55.650;37.500;2023-02-11T05:14:44;9.95;;;2.90;;
70385;SDS011;63206;55.650;37.500;2023-02-11T05:17:10;8.52;;;3.15;;
70385;SDS011;63206;55.650;37.500;2023-02-11T05:19:40;11.57;;;3.13;;
70385;SDS011;63206;55.650;37.500;2023-02-11T05:22:06;11.88;;;3.25;;
70385;SDS011;63206;55.650;37.500;2023-02-11T05:24:34;11.00;;;4.03;;
70385;SDS011;63206;55.650;37.500;2023-02-11T05:27:03;10.30;;;3.05;;
70385;SDS011;63206;55.650;37.500;2023-02-11T05:31:58;10.20;;;3.50;;
70385;SDS011;63206;55.650;37.500;2023-02-11T05:34:29;16.38;;;3.63;;
70385;SDS011;63206;55.650;37.500;2023-02-11T05:37:04;10.82;;;3.40;;
70385;SDS011;63206;55.650;37.500;2023-02-11T05:39:32;10.77;;;3.85;;
70385;SDS011;63206;55.650;37.500;2023-02-11T05:42:04;11.05;;;4.10;;
70385;SDS011;63206;55.650;37.500;2023-02-11T05:44:32;9.98;;;3.60;;
70385;SDS011;63206;55.650;37.500;2023-02-11T05:47:01;11.70;;;3.90;;
70385;SDS011;63206;55.650;37.500;2023-02-11T05:49:33;13.73;;;4.32;;
70385;SDS011;63206;55.650;37.500;2023-02-11T05:51:59;13.88;;;4.30;;
70385;SDS011;63206;55.650;37.500;2023-02-11T05:54:28;12.27;;;4.38;;
70385;SDS011;63206;55.650;37.500;2023-02-11T05:56:54;13.98;;;4.47;;
70385;SDS011;63206;55.650;37.500;2023-02-11T05:59:19;10.73;;;3.53;;
70385;SDS011;63206;55.650;37.500;2023-02-11T06:01:54;15.05;;;4.20;;
70385;SDS011;63206;55.650;37.500;2023-02-11T06:04:23;14.75;;;4.22;;
70385;SDS011;63206;55.650;37.500;2023-02-11T06:06:52;16.33;;;5.03;;
70385;SDS011;63206;55.650;37.500;2023-02-11T06:09:18;12.82;;;4.40;;
70385;SDS011;63206;55.650;37.500;2023-02-11T06:11:44;14.20;;;4.85;;
70385;SDS011;63206;55.650;37.500;2023-02-11T06:14:09;15.30;;;4.72;;
70385;SDS011;63206;55.650;37.500;2023-02-11T06:16:38;15.23;;;4.47;;
70385;SDS011;63206;55.650;37.500;2023-02-11T06:19:07;14.98;;;4.88;;
70385;SDS011;63206;55.650;37.500;2023-02-11T06:21:35;15.82;;;5.20;;
70385;SDS011;63206;55.650;37.500;2023-02-11T06:24:04;11.07;;;4.15;;
70385;SDS011;63206;55.650;37.500;2023-02-11T06:26:33;17.60;;;5.10;;
70385;SDS011;63206;55.650;37.500;2023-02-11T06:29:02;16.48;;;4.95;;
70385;SDS011;63206;55.650;37.500;2023-02-11T06:31:31;14.38;;;5.03;;
70385;SDS011;63206;55.650;37.500;2023-02-11T06:34:00;14.15;;;4.47;;
70385;SDS011;63206;55.650;37.500;2023-02-11T06:36:28;13.13;;;4.30;;
70385;SDS011;63206;55.650;37.500;2023-02-11T06:38:57;15.82;;;4.45;;
70385;SDS011;63206;55.650;37.500;2023-02-11T06:41:29;12.70;;;4.40;;
70385;SDS011;63206;55.650;37.500;2023-02-11T06:43:55;13.40;;;4.38;;
70385;SDS011;63206;55.650;37.500;2023-02-11T06:46:24;11.88;;;4.28;;
70385;SDS011;63206;55.650;37.500;2023-02-11T06:48:59;11.98;;;3.95;;
70385;SDS011;63206;55.650;37.500;2023-02-11T06:51:28;13.25;;;4.68;;
70385;SDS011;63206;55.650;37.500;2023-02-11T06:53:58;15.73;;;4.43;;
70385;SDS011;63206;55.650;37.500;2023-02-11T06:56:27;16.10;;;4.57;;
70385;SDS011;63206;55.650;37.500;2023-02-11T06:58:56;13.55;;;4.38;;
70385;SDS011;63206;55.650;37.500;2023-02-11T07:01:24;12.82;;;4.60;;
70385;SDS011;63206;55.650;37.500;2023-02-11T07:03:59;13.38;;;4.93;;
70385;SDS011;63206;55.650;37.500;2023-02-11T07:06:25;13.25;;;4.82;;
70385;SDS011;63206;55.650;37.500;2023-02-11T07:08:53;14.63;;;4.68;;
70385;SDS011;63206;55.650;37.500;2023-02-11T07:11:23;15.00;;;4.95;;
70385;SDS011;63206;55.650;37.500;2023-02-11T07:13:58;13.57;;;4.88;;
70385;SDS011;63206;55.650;37.500;2023-02-11T07:16:26;12.70;;;4.38;;
70385;SDS011;63206;55.650;37.500;2023-02-11T07:18:55;13.23;;;4.30;;
70385;SDS011;63206;55.650;37.500;2023-02-11T07:23:52;14.15;;;4.55;;
70385;SDS011;63206;55.650;37.500;2023-02-11T07:26:24;13.85;;;4.35;;
70385;SDS011;63206;55.650;37.500;2023-02-11T07:31:28;12.25;;;4.65;;
70385;SDS011;63206;55.650;37.500;2023-02-11T07:33:58;13.57;;;4.53;;
70385;SDS011;63206;55.650;37.500;2023-02-11T07:36:28;15.32;;;5.05;;
70385;SDS011;63206;55.650;37.500;2023-02-11T07:39:01;16.65;;;4.90;;
70385;SDS011;63206;55.650;37.500;2023-02-11T07:41:35;15.75;;;5.03;;
70385;SDS011;63206;55.650;37.500;2023-02-11T07:44:10;17.02;;;4.90;;
70385;SDS011;63206;55.650;37.500;2023-02-11T07:46:38;11.45;;;4.30;;
70385;SDS011;63206;55.650;37.500;2023-02-11T07:49:12;16.25;;;4.90;;
70385;SDS011;63206;55.650;37.500;2023-02-11T07:51:47;14.43;;;5.03;;
70385;SDS011;63206;55.650;37.500;2023-02-11T07:54:18;12.30;;;4.65;;
70385;SDS011;63206;55.650;37.500;2023-02-11T07:56:53;16.13;;;4.97;;
70385;SDS011;63206;55.650;37.500;2023-02-11T07:59:21;15.25;;;5.00;;
70385;SDS011;63206;55.650;37.500;2023-02-11T08:01:52;17.30;;;5.60;;
70385;SDS011;63206;55.650;37.500;2023-02-11T08:04:18;18.08;;;4.82;;
70385;SDS011;63206;55.650;37.500;2023-02-11T08:06:44;16.63;;;5.05;;
70385;SDS011;63206;55.650;37.500;2023-02-11T08:09:14;13.95;;;5.25;;
70385;SDS011;63206;55.650;37.500;2023-02-11T08:11:47;16.23;;;5.32;;
70385;SDS011;63206;55.650;37.500;2023-02-11T08:14:19;18.80;;;5.53;;
70385;SDS011;63206;55.650;37.500;2023-02-11T08:16:49;14.32;;;4.97;;
70385;SDS011;63206;55.650;37.500;2023-02-11T08:19:16;16.00;;;5.03;;
70385;SDS011;63206;55.650;37.500;2023-02-11T08:21:42;14.32;;;4.90;;
70385;SDS011;63206;55.650;37.500;2023-02-11T08:24:11;15.00;;;4.43;;
70385;SDS011;63206;55.650;37.500;2023-02-11T08:26:43;17.67;;;5.88;;
70385;SDS011;63206;55.650;37.500;2023-02-11T08:29:10;17.02;;;5.38;;
70385;SDS011;63206;55.650;37.500;2023-02-11T08:31:42;15.07;;;5.53;;
70385;SDS011;63206;55.650;37.500;2023-02-11T08:34:17;15.60;;;5.47;;
70385;SDS011;63206;55.650;37.500;2023-02-11T08:36:46;14.63;;;4.78;;
70385;SDS011;63206;55.650;37.500;2023-02-11T08:39:20;14.80;;;5.38;;
70385;SDS011;63206;55.650;37.500;2023-02-11T08:41:53;15.88;;;5.35;;
70385;SDS011;63206;55.650;37.500;2023-02-11T08:44:24;13.40;;;5.00;;
70385;SDS011;63206;55.650;37.500;2023-02-11T08:46:58;13.48;;;4.90;;
70385;SDS011;63206;55.650;37.500;2023-02-11T08:49:32;14.68;;;4.78;;
70385;SDS011;63206;55.650;37.500;2023-02-11T08:52:07;12.70;;;4.53;;
70385;SDS011;63206;55.650;37.500;2023-02-11T08:54:42;14.48;;;5.28;;
70385;SDS011;63206;55.650;37.500;2023-02-11T08:57:10;13.18;;;4.88;;
70385;SDS011;63206;55.650;37.500;2023-02-11T08:59:42;14.43;;;4.07;;
70385;SDS011;63206;55.650;37.500;2023-02-11T09:02:14;13.88;;;4.57;;
70385;SDS011;63206;55.650;37.500;2023-02-11T09:04:44;14.32;;;4.68;;
70385;SDS011;63206;55.650;37.500;2023-02-11T09:07:10;13.55;;;4.28;;
70385;SDS011;63206;55.650;37.500;2023-02-11T09:09:45;13.65;;;4.63;;
70385;SDS011;63206;55.650;37.500;2023-02-11T09:12:17;15.23;;;4.60;;
70385;SDS011;63206;55.650;37.500;2023-02-11T09:14:48;13.48;;;4.78;;
70385;SDS011;63206;55.650;37.500;2023-02-11T09:17:17;12.13;;;4.43;;
70385;SDS011;63206;55.650;37.500;2023-02-11T09:19:45;14.80;;;5.10;;
70385;SDS011;63206;55.650;37.500;2023-02-11T09:22:14;15.98;;;4.88;;
70385;SDS011;63206;55.650;37.500;2023-02-11T09:24:43;11.80;;;4.30;;
70385;SDS011;63206;55.650;37.500;2023-02-11T09:27:11;14.20;;;5.00;;
70385;SDS011;63206;55.650;37.500;2023-02-11T09:29:46;15.63;;;5.18;;
70385;SDS011;63206;55.650;37.500;2023-02-11T09:32:17;14.93;;;4.50;;
70385;SDS011;63206;55.650;37.500;2023-02-11T09:34:46;13.57;;;4.28;;
70385;SDS011;63206;55.650;37.500;2023-02-11T09:37:17;12.82;;;4.45;;
70385;SDS011;63206;55.650;37.500;2023-02-11T09:39:52;11.60;;;4.28;;
70385;SDS011;63206;55.650;37.500;2023-02-11T09:45:25;13.85;;;5.22;;
70385;SDS011;63206;55.650;37.500;2023-02-11T09:50:39;11.90;;;4.28;;
70385;SDS011;63206;55.650;37.500;2023-02-11T09:53:28;12.95;;;4.60;;
70385;SDS011;63206;55.650;37.500;2023-02-11T09:56:00;11.15;;;4.28;;
70385;SDS011;63206;55.650;37.500;2023-02-11T09:58:33;13.15;;;5.07;;
70385;SDS011;63206;55.650;37.500;2023-02-11T10:01:19;11.43;;;4.30;;
70385;SDS011;63206;55.650;37.500;2023-02-11T10:04:00;14.10;;;5.55;;
70385;SDS011;63206;55.650;37.500;2023-02-11T10:06:39;13.35;;;4.60;;
70385;SDS011;63206;55.650;37.500;2023-02-11T10:09:29;14.57;;;4.78;;
70385;SDS011;63206;55.650;37.500;2023-02-11T10:12:17;15.13;;;4.80;;
70385;SDS011;63206;55.650;37.500;2023-02-11T10:22:32;14.40;;;4.95;;
70385;SDS011;63206;55.650;37.500;2023-02-11T10:25:23;15.07;;;4.45;;
70385;SDS011;63206;55.650;37.500;2023-02-11T10:27:53;13.43;;;4.72;;
70385;SDS011;63206;55.650;37.500;2023-02-11T10:30:27;18.00;;;5.57;;
70385;SDS011;63206;55.650;37.500;2023-02-11T10:35:53;12.18;;;4.72;;
70385;SDS011;63206;55.650;37.500;2023-02-11T10:38:28;12.68;;;4.80;;
70385;SDS011;63206;55.650;37.500;2023-02-11T10:40:56;13.68;;;4.47;;
70385;SDS011;63206;55.650;37.500;2023-02-11T10:43:27;12.43;;;4.47;;
70385;SDS011;63206;55.650;37.500;2023-02-11T10:45:57;15.68;;;5.40;;
70385;SDS011;63206;55.650;37.500;2023-02-11T10:48:42;13.25;;;5.40;;
70385;SDS011;63206;55.650;37.500;2023-02-11T10:54:09;13.05;;;4.93;;
70385;SDS011;63206;55.650;37.500;2023-02-11T10:56:49;13.98;;;5.10;;
70385;SDS011;63206;55.650;37.500;2023-02-11T10:59:32;15.38;;;5.65;;
70385;SDS011;63206;55.650;37.500;2023-02-11T11:02:05;17.45;;;5.40;;
70385;SDS011;63206;55.650;37.500;2023-02-11T11:04:48;14.27;;;5.63;;
70385;SDS011;63206;55.650;37.500;2023-02-11T11:07:20;17.23;;;5.70;;
70385;SDS011;63206;55.650;37.500;2023-02-11T11:12:32;17.25;;;5.88;;
70385;SDS011;63206;55.650;37.500;2023-02-11T11:17:39;17.20;;;6.40;;
70385;SDS011;63206;55.650;37.500;2023-02-11T11:22:46;19.42;;;6.68;;
70385;SDS011;63206;55.650;37.500;2023-02-11T11:25:23;17.85;;;6.20;;
70385;SDS011;63206;55.650;37.500;2023-02-11T11:27:59;15.32;;;5.78;;
70385;SDS011;63206;55.650;37.500;2023-02-11T11:30:41;16.02;;;6.68;;
70385;SDS011;63206;55.650;37.500;2023-02-11T11:33:26;18.23;;;6.38;;
70385;SDS011;63206;55.650;37.500;2023-02-11T11:36:12;14.85;;;6.10;;
70385;SDS011;63206;55.650;37.500;2023-02-11T11:38:54;19.52;;;6.47;;
70385;SDS011;63206;55.650;37.500;2023-02-11T11:41:28;18.15;;;6.32;;
70385;SDS011;63206;55.650;37.500;2023-02-11T11:46:31;17.65;;;6.55;;
70385;SDS011;63206;55.650;37.500;2023-02-11T11:48:59;16.40;;;6.22;;
70385;SDS011;63206;55.650;37.500;2023-02-11T11:51:28;18.95;;;6.78;;
70385;SDS011;63206;55.650;37.500;2023-02-11T11:54:02;19.38;;;6.93;;
70385;SDS011;63206;55.650;37.500;2023-02-11T11:56:32;13.02;;;4.50;;
70385;SDS011;63206;55.650;37.500;2023-02-11T11:58:59;18.90;;;6.82;;
70385;SDS011;63206;55.650;37.500;2023-02-11T12:01:42;18.95;;;7.00;;
70385;SDS011;63206;55.650;37.500;2023-02-11T12:09:51;18.08;;;6.43;;
70385;SDS011;63206;55.650;37.500;2023-02-11T12:12:43;20.40;;;6.82;;
70385;SDS011;63206;55.650;37.500;2023-02-11T12:30:44;16.52;;;6.13;;
70385;SDS011;63206;55.650;37.500;2023-02-11T12:33:30;16.95;;;6.50;;
70385;SDS011;63206;55.650;37.500;2023-02-11T12:41:14;17.77;;;6.20;;
70385;SDS011;63206;55.650;37.500;2023-02-11T12:43:47;19.23;;;6.78;;
70385;SDS011;63206;55.650;37.500;2023-02-11T12:59:11;20.05;;;6.07;;
70385;SDS011;63206;55.650;37.500;2023-02-11T13:01:42;16.65;;;7.00;;
70385;SDS011;63206;55.650;37.500;2023-02-11T13:06:46;19.42;;;6.53;;
70385;SDS011;63206;55.650;37.500;2023-02-11T13:09:20;17.58;;;6.75;;
70385;SDS011;63206;55.650;37.500;2023-02-11T13:11:53;12.95;;;5.18;;
70385;SDS011;63206;55.650;37.500;2023-02-11T13:14:30;17.38;;;6.15;;
70385;SDS011;63206;55.650;37.500;2023-02-11T13:16:59;18.48;;;6.03;;
70385;SDS011;63206;55.650;37.500;2023-02-11T13:19:43;17.35;;;6.28;;
70385;SDS011;63206;55.650;37.500;2023-02-11T13:22:18;16.98;;;6.38;;
70385;SDS011;63206;55.650;37.500;2023-02-11T13:24:50;16.05;;;5.35;;
70385;SDS011;63206;55.650;37.500;2023-02-11T13:33:00;16.88;;;6.18;;
70385;SDS011;63206;55.650;37.500;2023-02-11T13:35:28;20.48;;;6.82;;
70385;SDS011;63206;55.650;37.500;2023-02-11T13:38:43;19.70;;;6.88;;
70385;SDS011;63206;55.650;37.500;2023-02-11T13:43:41;18.92;;;6.00;;
70385;SDS011;63206;55.650;37.500;2023-02-11T13:46:11;19.50;;;6.60;;
70385;SDS011;63206;55.650;37.500;2023-02-11T13:48:48;16.73;;;5.65;;
70385;SDS011;63206;55.650;37.500;2023-02-11T13:51:15;19.77;;;6.13;;
70385;SDS011;63206;55.650;37.500;2023-02-11T13:54:03;20.27;;;6.25;;
70385;SDS011;63206;55.650;37.500;2023-02-11T13:56:35;23.48;;;7.63;;
70385;SDS011;63206;55.650;37.500;2023-02-11T13:59:02;17.98;;;6.65;;
70385;SDS011;63206;55.650;37.500;2023-02-11T14:04:05;21.45;;;6.88;;
70385;SDS011;63206;55.650;37.500;2023-02-11T14:07:20;22.90;;;7.35;;
70385;SDS011;63206;55.650;37.500;2023-02-11T14:10:08;18.95;;;6.60;;
70385;SDS011;63206;55.650;37.500;2023-02-11T14:15:38;20.40;;;6.50;;
70385;SDS011;63206;55.650;37.500;2023-02-11T14:20:49;23.25;;;6.80;;
70385;SDS011;63206;55.650;37.500;2023-02-11T14:23:22;21.95;;;7.38;;
70385;SDS011;63206;55.650;37.500;2023-02-11T14:25:58;21.58;;;6.88;;
70385;SDS011;63206;55.650;37.500;2023-02-11T14:28:25;17.35;;;6.07;;
70385;SDS011;63206;55.650;37.500;2023-02-11T14:31:03;21.23;;;7.85;;
70385;SDS011;63206;55.650;37.500;2023-02-11T14:41:28;24.42;;;7.20;;
70385;SDS011;63206;55.650;37.500;2023-02-11T14:44:03;16.42;;;6.80;;
70385;SDS011;63206;55.650;37.500;2023-02-11T14:46:29;17.33;;;4.85;;
70385;SDS011;63206;55.650;37.500;2023-02-11T14:49:00;22.45;;;6.70;;
70385;SDS011;63206;55.650;37.500;2023-02-11T14:51:34;18.73;;;5.93;;
70385;SDS011;63206;55.650;37.500;2023-02-11T14:54:11;23.52;;;6.55;;
70385;SDS011;63206;55.650;37.500;2023-02-11T14:56:42;18.30;;;6.03;;
70385;SDS011;63206;55.650;37.500;2023-02-11T14:59:16;16.45;;;4.68;;
70385;SDS011;63206;55.650;37.500;2023-02-11T15:01:49;21.95;;;6.13;;
70385;SDS011;63206;55.650;37.500;2023-02-11T15:04:48;18.13;;;6.97;;
70385;SDS011;63206;55.650;37.500;2023-02-11T15:07:09;19.25;;;6.10;;
70385;SDS011;63206;55.650;37.500;2023-02-11T15:09:40;21.33;;;6.05;;
70385;SDS011;63206;55.650;37.500;2023-02-11T15:12:27;20.83;;;6.40;;
70385;SDS011;63206;55.650;37.500;2023-02-11T15:14:56;20.25;;;5.97;;
70385;SDS011;63206;55.650;37.500;2023-02-11T15:17:27;23.75;;;7.18;;
70385;SDS011;63206;55.650;37.500;2023-02-11T15:19:55;19.08;;;6.13;;
70385;SDS011;63206;55.650;37.500;2023-02-11T15:22:28;15.18;;;4.63;;
70385;SDS011;63206;55.650;37.500;2023-02-11T15:27:42;19.55;;;6.65;;
70385;SDS011;63206;55.650;37.500;2023-02-11T15:35:18;25.77;;;6.45;;
70385;SDS011;63206;55.650;37.500;2023-02-11T15:37:44;19.90;;;6.10;;
70385;SDS011;63206;55.650;37.500;2023-02-11T15:40:16;18.27;;;6.65;;
70385;SDS011;63206;55.650;37.500;2023-02-11T15:42:56;20.60;;;6.00;;
70385;SDS011;63206;55.650;37.500;2023-02-11T15:45:23;22.63;;;5.80;;
70385;SDS011;63206;55.650;37.500;2023-02-11T15:47:56;16.85;;;5.38;;
70385;SDS011;63206;55.650;37.500;2023-02-11T15:50:26;20.27;;;6.53;;
70385;SDS011;63206;55.650;37.500;2023-02-11T15:52:54;19.67;;;6.40;;
70385;SDS011;63206;55.650;37.500;2023-02-11T15:55:20;17.35;;;6.10;;
70385;SDS011;63206;55.650;37.500;2023-02-11T15:57:52;17.20;;;5.47;;
70385;SDS011;63206;55.650;37.500;2023-02-11T16:00:20;18.42;;;5.95;;
70385;SDS011;63206;55.650;37.500;2023-02-11T16:02:46;20.33;;;6.93;;
70385;SDS011;63206;55.650;37.500;2023-02-11T16:07:51;16.90;;;6.35;;
70385;SDS011;63206;55.650;37.500;2023-02-11T16:10:22;18.25;;;5.75;;
70385;SDS011;63206;55.650;37.500;2023-02-11T16:12:50;21.45;;;6.05;;
70385;SDS011;63206;55.650;37.500;2023-02-11T16:18:12;20.25;;;5.97;;
70385;SDS011;63206;55.650;37.500;2023-02-11T16:20:39;17.75;;;5.65;;
70385;SDS011;63206;55.650;37.500;2023-02-11T16:23:05;18.27;;;5.63;;
70385;SDS011;63206;55.650;37.500;2023-02-11T16:25:33;17.55;;;5.88;;
70385;SDS011;63206;55.650;37.500;2023-02-11T16:28:02;19.65;;;5.93;;
70385;SDS011;63206;55.650;37.500;2023-02-11T16:32:59;17.15;;;6.18;;
70385;SDS011;63206;55.650;37.500;2023-02-11T16:35:26;20.83;;;6.55;;
70385;SDS011;63206;55.650;37.500;2023-02-11T16:37:51;17.70;;;6.40;;
70385;SDS011;63206;55.650;37.500;2023-02-11T16:40:27;18.45;;;5.88;;
70385;SDS011;63206;55.650;37.500;2023-02-11T16:42:56;18.13;;;5.15;;
70385;SDS011;63206;55.650;37.500;2023-02-11T16:45:21;18.40;;;5.57;;
70385;SDS011;63206;55.650;37.500;2023-02-11T16:47:53;18.25;;;6.30;;
70385;SDS011;63206;55.650;37.500;2023-02-11T16:50:22;15.90;;;5.00;;
70385;SDS011;63206;55.650;37.500;2023-02-11T16:52:53;17.73;;;6.30;;
70385;SDS011;63206;55.650;37.500;2023-02-11T16:55:22;17.42;;;4.90;;
70385;SDS011;63206;55.650;37.500;2023-02-11T16:57:49;16.25;;;6.22;;
70385;SDS011;63206;55.650;37.500;2023-02-11T17:00:18;20.00;;;5.75;;
70385;SDS011;63206;55.650;37.500;2023-02-11T17:02:46;16.73;;;5.60;;
70385;SDS011;63206;55.650;37.500;2023-02-11T17:05:20;17.55;;;5.68;;
70385;SDS011;63206;55.650;37.500;2023-02-11T17:07:50;18.88;;;5.93;;
70385;SDS011;63206;55.650;37.500;2023-02-11T17:10:21;18.35;;;5.38;;
70385;SDS011;63206;55.650;37.500;2023-02-11T17:12:50;17.85;;;5.05;;
70385;SDS011;63206;55.650;37.500;2023-02-11T17:15:30;21.40;;;6.20;;